createdAt,value
2023-05-18T00:01:16.993Z,100.00
2023-05-18T00:03:44.030Z,100.00
2023-05-18T00:06:10.943Z,100.00
2023-05-18T00:08:37.973Z,100.00
2023-05-18T00:11:05.530Z,100.00
2023-05-18T00:13:32.309Z,100.00
2023-05-18T00:15:59.240Z,100.00
2023-05-18T00:18:26.773Z,100.00
2023-05-18T00:20:59.212Z,100.00
2023-05-18T00:23:30.063Z,100.00
2023-05-18T00:26:00.407Z,100.00
2023-05-18T00:28:27.334Z,100.00
2023-05-18T00:30:54.508Z,100.00
2023-05-18T00:33:21.520Z,100.00
2023-05-18T00:35:48.377Z,100.00
2023-05-18T00:38:15.694Z,100.00
2023-05-18T00:40:42.720Z,100.00
2023-05-18T00:43:10.051Z,100.00
2023-05-18T00:45:36.851Z,100.00
2023-05-18T00:48:04.111Z,100.00
2023-05-18T00:50:30.938Z,100.00
2023-05-18T00:52:57.808Z,100.00
2023-05-18T00:55:24.608Z,100.00
2023-05-18T00:57:51.820Z,100.00
2023-05-18T01:00:20.727Z,100.00
2023-05-18T01:02:47.642Z,100.00
2023-05-18T01:05:14.546Z,100.00
2023-05-18T01:07:44.111Z,100.00
2023-05-18T01:10:11.684Z,100.00
2023-05-18T01:12:58.505Z,100.00
2023-05-18T01:15:35.825Z,100.00
2023-05-18T01:18:23.550Z,100.00
2023-05-18T01:20:57.720Z,100.00
2023-05-18T01:23:30.740Z,100.00
2023-05-18T01:25:57.355Z,100.00
2023-05-18T01:28:29.007Z,100.00
2023-05-18T01:30:56.008Z,100.00
2023-05-18T01:33:24.442Z,100.00
2023-05-18T01:35:55.544Z,100.00
2023-05-18T01:38:26.353Z,100.00
2023-05-18T01:41:14.838Z,100.00
2023-05-18T01:43:52.833Z,100.00
2023-05-18T01:46:34.465Z,100.00
2023-05-18T01:49:12.224Z,100.00
2023-05-18T01:51:42.055Z,100.00
2023-05-18T01:54:08.871Z,100.00
2023-05-18T01:56:36.069Z,100.00
2023-05-18T01:59:03.011Z,100.00
2023-05-18T02:01:29.840Z,100.00
2023-05-18T02:03:56.749Z,100.00
2023-05-18T02:06:23.627Z,100.00
2023-05-18T02:08:51.557Z,100.00
2023-05-18T02:11:18.418Z,100.00
2023-05-18T02:13:45.253Z,100.00
2023-05-18T02:16:12.455Z,100.00
2023-05-18T02:18:40.043Z,100.00
2023-05-18T02:21:09.459Z,100.00
2023-05-18T02:23:36.464Z,100.00
2023-05-18T02:26:03.685Z,100.00
2023-05-18T02:28:30.502Z,100.00
2023-05-18T02:31:10.261Z,100.00
2023-05-18T02:33:39.984Z,100.00
2023-05-18T02:36:11.090Z,100.00
2023-05-18T02:38:39.076Z,100.00
2023-05-18T02:41:06.137Z,100.00
2023-05-18T02:43:32.994Z,100.00
2023-05-18T02:45:59.736Z,100.00
2023-05-18T02:48:26.774Z,100.00
2023-05-18T02:50:53.984Z,100.00
2023-05-18T02:53:21.638Z,100.00
2023-05-18T02:55:48.947Z,100.00
2023-05-18T02:58:16.226Z,100.00
2023-05-18T03:00:43.066Z,100.00
2023-05-18T03:03:11.096Z,100.00
2023-05-18T03:05:38.046Z,100.00
2023-05-18T03:08:05.264Z,100.00
2023-05-18T03:10:32.093Z,100.00
2023-05-18T03:12:58.857Z,100.00
2023-05-18T03:15:25.678Z,100.00
2023-05-18T03:17:52.577Z,100.00
2023-05-18T03:20:19.947Z,100.00
2023-05-18T03:22:46.662Z,100.00
2023-05-18T03:25:15.091Z,100.00
2023-05-18T03:27:41.857Z,100.00
2023-05-18T03:30:09.560Z,100.00
2023-05-18T03:32:37.355Z,100.00
2023-05-18T03:35:04.920Z,100.00
2023-05-18T03:37:31.681Z,100.00
2023-05-18T03:40:11.164Z,100.00
2023-05-18T03:42:38.887Z,100.00
2023-05-18T03:45:06.433Z,100.00
2023-05-18T03:47:33.790Z,100.00
2023-05-18T03:50:00.783Z,100.00
2023-05-18T03:52:30.050Z,100.00
2023-05-18T03:54:56.873Z,100.00
2023-05-18T03:57:23.710Z,100.00
2023-05-18T03:59:50.493Z,100.00
2023-05-18T04:02:17.362Z,100.00
2023-05-18T04:04:47.374Z,100.00
2023-05-18T04:07:16.716Z,100.00
2023-05-18T04:09:44.139Z,100.00
2023-05-18T04:12:11.154Z,100.00
2023-05-18T04:14:37.989Z,100.00
2023-05-18T04:17:06.516Z,100.00
2023-05-18T04:19:37.081Z,100.00
2023-05-18T04:22:06.967Z,100.00
2023-05-18T04:24:34.590Z,100.00
2023-05-18T04:27:02.096Z,100.00
2023-05-18T04:29:29.379Z,100.00
2023-05-18T04:32:02.565Z,100.00
2023-05-18T04:34:29.807Z,100.00
2023-05-18T04:36:58.791Z,100.00
2023-05-18T04:39:25.876Z,100.00
2023-05-18T04:41:58.198Z,100.00
2023-05-18T04:44:28.320Z,99.15
2023-05-18T04:46:55.410Z,98.28
2023-05-18T04:49:22.744Z,96.69
2023-05-18T04:51:50.446Z,95.42
2023-05-18T04:54:17.233Z,93.48
2023-05-18T04:56:44.039Z,92.40
2023-05-18T04:59:10.867Z,90.83
2023-05-18T05:01:37.864Z,89.66
2023-05-18T05:04:06.303Z,88.40
2023-05-18T05:06:33.100Z,86.99
2023-05-18T05:08:59.847Z,84.93
2023-05-18T05:11:26.639Z,84.27
2023-05-18T05:13:53.364Z,82.00
2023-05-18T05:16:20.214Z,82.40
2023-05-18T05:18:47.577Z,82.01
2023-05-18T05:21:14.418Z,81.99
2023-05-18T05:23:41.438Z,80.42
2023-05-18T05:26:08.189Z,80.17
2023-05-18T05:28:34.977Z,77.66
2023-05-18T05:31:01.732Z,77.45
2023-05-18T05:33:28.557Z,75.51
2023-05-18T05:35:58.066Z,73.18
2023-05-18T05:38:24.857Z,71.75
2023-05-18T05:40:51.584Z,72.23
2023-05-18T05:43:18.283Z,70.54
2023-05-18T05:45:45.069Z,68.68
2023-05-18T05:48:13.766Z,69.24
2023-05-18T05:50:40.881Z,67.51
2023-05-18T05:53:07.553Z,66.65
2023-05-18T05:55:41.207Z,66.58
2023-05-18T05:58:09.232Z,64.80
2023-05-18T06:00:36.798Z,64.28
2023-05-18T06:03:03.830Z,63.57
2023-05-18T06:05:30.771Z,61.71
2023-05-18T06:07:57.754Z,62.58
2023-05-18T06:10:24.554Z,61.48
2023-05-18T06:12:51.341Z,61.91
2023-05-18T06:15:19.032Z,61.47
2023-05-18T06:17:45.853Z,60.98
2023-05-18T06:20:13.713Z,59.29
2023-05-18T06:22:40.537Z,59.96
2023-05-18T06:25:08.555Z,58.83
2023-05-18T06:27:35.369Z,59.86
2023-05-18T06:30:02.304Z,59.40
2023-05-18T06:32:29.231Z,56.05
2023-05-18T06:34:56.512Z,57.02
2023-05-18T06:37:24.848Z,58.48
2023-05-18T06:39:51.608Z,56.05
2023-05-18T06:42:18.380Z,57.53
2023-05-18T06:44:45.212Z,57.29
2023-05-18T06:47:12.000Z,54.99
2023-05-18T06:49:38.764Z,55.99
2023-05-18T06:52:06.126Z,43.14
2023-05-18T06:54:32.862Z,42.93
2023-05-18T06:56:59.668Z,40.45
2023-05-18T06:59:26.432Z,39.79
2023-05-18T07:01:53.431Z,47.70
2023-05-18T07:04:20.213Z,41.39
2023-05-18T07:06:46.941Z,36.77
2023-05-18T07:09:13.679Z,38.84
2023-05-18T07:11:40.575Z,43.69
2023-05-18T07:14:07.343Z,42.23
2023-05-18T07:16:34.314Z,34.92
2023-05-18T07:19:01.275Z,42.91
2023-05-18T07:21:28.126Z,40.20
2023-05-18T07:23:54.823Z,41.35
2023-05-18T07:26:22.667Z,41.37
2023-05-18T07:28:51.323Z,43.72
2023-05-18T07:31:21.249Z,36.16
2023-05-18T07:33:50.895Z,35.96
2023-05-18T07:36:17.600Z,41.57
2023-05-18T07:38:44.395Z,40.62
2023-05-18T07:41:11.127Z,36.60
2023-05-18T07:43:37.994Z,37.07
2023-05-18T07:46:04.787Z,35.06
2023-05-18T07:48:31.464Z,35.68
2023-05-18T07:50:58.412Z,36.68
2023-05-18T07:53:25.190Z,37.02
2023-05-18T07:55:51.972Z,36.56
2023-05-18T07:58:18.901Z,31.12
2023-05-18T08:00:45.792Z,38.15
2023-05-18T08:03:12.705Z,35.80
2023-05-18T08:05:39.540Z,38.84
2023-05-18T08:08:07.147Z,39.79
2023-05-18T08:10:34.039Z,28.74
2023-05-18T08:13:00.753Z,33.36
2023-05-18T08:15:27.523Z,34.87
2023-05-18T08:17:55.300Z,36.27
2023-05-18T08:20:22.110Z,37.34
2023-05-18T08:22:49.032Z,33.29
2023-05-18T08:25:15.861Z,38.64
2023-05-18T08:27:42.688Z,30.92
2023-05-18T08:30:10.080Z,32.63
2023-05-18T08:32:37.593Z,33.90
2023-05-18T08:35:08.566Z,32.77
2023-05-18T08:37:37.484Z,32.34
2023-05-18T08:40:11.449Z,27.47
2023-05-18T08:42:51.643Z,30.77
2023-05-18T08:45:44.664Z,30.85
2023-05-18T08:48:11.606Z,31.78
2023-05-18T08:50:38.712Z,30.45
2023-05-18T08:53:05.970Z,29.23
2023-05-18T08:55:37.354Z,27.82
2023-05-18T08:58:07.277Z,28.91
2023-05-18T09:00:34.749Z,28.56
2023-05-18T09:03:03.203Z,25.71
2023-05-18T09:05:30.321Z,32.19
2023-05-18T09:07:57.406Z,23.96
2023-05-18T09:10:24.169Z,28.95
2023-05-18T09:12:50.967Z,26.94
2023-05-18T09:15:17.927Z,25.64
2023-05-18T09:17:44.728Z,28.70
2023-05-18T09:20:11.642Z,29.87
2023-05-18T09:22:41.165Z,27.37
2023-05-18T09:25:10.900Z,28.65
2023-05-18T09:27:38.268Z,27.73
2023-05-18T09:30:06.051Z,30.55
2023-05-18T09:32:36.353Z,27.58
2023-05-18T09:35:07.066Z,25.09
2023-05-18T09:37:34.130Z,26.37
2023-05-18T09:40:02.115Z,27.24
2023-05-18T09:42:44.171Z,30.54
2023-05-18T09:45:23.553Z,27.45
2023-05-18T09:47:50.666Z,26.96
2023-05-18T09:50:21.506Z,29.29
2023-05-18T09:52:49.410Z,30.75
2023-05-18T09:55:16.733Z,31.57
2023-05-18T09:57:44.391Z,28.72
2023-05-18T10:00:12.736Z,26.26
2023-05-18T10:02:50.452Z,29.49
2023-05-18T10:05:36.082Z,30.45
2023-05-18T10:08:03.363Z,29.69
2023-05-18T10:10:30.409Z,28.45
2023-05-18T10:12:58.581Z,28.24
2023-05-18T10:15:25.656Z,26.15
2023-05-18T10:17:55.932Z,22.61
2023-05-18T10:20:29.146Z,28.24
2023-05-18T10:22:56.726Z,25.36
2023-05-18T10:25:28.445Z,26.81
2023-05-18T10:27:56.772Z,26.53
2023-05-18T10:30:23.678Z,28.77
2023-05-18T10:32:50.980Z,29.31
2023-05-18T10:35:17.928Z,25.98
2023-05-18T10:37:48.230Z,27.43
2023-05-18T10:40:17.910Z,27.94
2023-05-18T10:42:44.914Z,31.55
2023-05-18T10:45:20.009Z,27.47
2023-05-18T10:47:49.284Z,29.70
2023-05-18T10:50:21.804Z,29.52
2023-05-18T10:52:49.136Z,30.92
2023-05-18T10:55:16.132Z,31.41
2023-05-18T10:57:46.618Z,28.55
2023-05-18T11:00:13.697Z,31.37
2023-05-18T11:02:42.867Z,30.95
2023-05-18T11:05:10.755Z,30.40
2023-05-18T11:07:37.902Z,28.02
2023-05-18T11:10:11.264Z,26.74
2023-05-18T11:12:38.428Z,27.62
2023-05-18T11:15:06.147Z,28.70
2023-05-18T11:17:33.075Z,26.95
2023-05-18T11:20:09.497Z,30.67
2023-05-18T11:23:12.448Z,26.91
2023-05-18T11:25:54.487Z,26.14
2023-05-18T11:28:22.409Z,28.16
2023-05-18T11:30:50.267Z,26.79
2023-05-18T11:33:19.127Z,26.18
2023-05-18T11:36:02.458Z,25.23
2023-05-18T11:39:07.105Z,24.72
2023-05-18T11:41:35.657Z,25.06
2023-05-18T11:44:06.892Z,26.54
2023-05-18T11:46:34.049Z,25.49
2023-05-18T11:49:16.357Z,26.17
2023-05-18T11:51:59.040Z,24.55
2023-05-18T11:54:26.538Z,27.40
2023-05-18T11:56:53.651Z,28.30
2023-05-18T11:59:56.151Z,27.48
2023-05-18T12:02:33.100Z,26.98
2023-05-18T12:05:02.449Z,26.50
2023-05-18T12:07:30.627Z,25.59
2023-05-18T12:10:23.854Z,23.43
2023-05-18T12:12:53.691Z,27.62
2023-05-18T12:15:25.061Z,25.29
2023-05-18T12:17:52.096Z,25.67
2023-05-18T12:20:20.149Z,27.26
2023-05-18T12:22:54.049Z,29.67
2023-05-18T12:25:22.128Z,30.38
2023-05-18T12:27:49.079Z,29.87
2023-05-18T12:30:15.743Z,27.50
2023-05-18T12:32:52.462Z,32.03
2023-05-18T12:35:37.193Z,30.98
2023-05-18T12:38:04.069Z,29.67
2023-05-18T12:40:44.149Z,29.37
2023-05-18T12:43:11.036Z,31.24
2023-05-18T12:45:37.955Z,28.81
2023-05-18T12:48:08.872Z,29.52
2023-05-18T12:50:37.223Z,32.17
2023-05-18T12:53:04.171Z,31.18
2023-05-18T12:55:32.566Z,28.61
2023-05-18T12:58:20.877Z,28.66
2023-05-18T13:00:48.146Z,28.54
2023-05-18T13:03:20.310Z,27.15
2023-05-18T13:06:01.743Z,27.50
2023-05-18T13:08:28.494Z,26.41
2023-05-18T13:13:34.068Z,28.83
2023-05-18T13:16:00.784Z,25.96
2023-05-18T13:18:27.874Z,26.29
2023-05-18T13:20:56.410Z,29.04
2023-05-18T13:23:29.830Z,31.26
2023-05-18T13:25:58.763Z,30.65
2023-05-18T13:28:26.886Z,30.68
2023-05-18T13:30:53.652Z,28.14
2023-05-18T13:33:21.551Z,28.10
2023-05-18T13:35:49.966Z,31.30
2023-05-18T13:38:16.918Z,31.96
2023-05-18T13:40:43.668Z,32.22
2023-05-18T13:43:12.808Z,34.80
2023-05-18T13:45:41.178Z,29.09
2023-05-18T13:48:10.779Z,30.87
2023-05-18T13:50:39.398Z,33.05
2023-05-18T13:53:06.940Z,32.33
2023-05-18T13:55:34.148Z,29.71
2023-05-18T13:58:00.994Z,29.60
2023-05-18T14:00:27.987Z,29.63
2023-05-18T14:02:54.951Z,31.56
2023-05-18T14:05:22.303Z,31.62
2023-05-18T14:07:49.099Z,31.24
2023-05-18T14:10:15.906Z,30.68
2023-05-18T14:12:42.809Z,31.28
2023-05-18T14:15:10.444Z,29.96
2023-05-18T14:17:37.363Z,31.58
2023-05-18T14:20:08.163Z,31.43
2023-05-18T14:22:34.974Z,32.76
2023-05-18T14:25:01.709Z,32.49
2023-05-18T14:27:28.973Z,34.06
2023-05-18T14:29:55.903Z,32.14
2023-05-18T14:32:22.850Z,33.91
2023-05-18T14:34:52.064Z,35.61
2023-05-18T14:37:19.027Z,30.48
2023-05-18T14:39:45.824Z,34.28
2023-05-18T14:42:12.552Z,33.33
2023-05-18T14:44:39.308Z,32.96
2023-05-18T14:47:06.533Z,33.49
2023-05-18T14:49:33.459Z,34.44
2023-05-18T14:52:00.182Z,33.59
2023-05-18T14:54:26.992Z,34.22
2023-05-18T14:56:53.701Z,32.43
2023-05-18T14:59:21.274Z,35.13
2023-05-18T15:01:48.158Z,32.91
2023-05-18T15:04:15.121Z,36.96
2023-05-18T15:06:42.034Z,35.36
2023-05-18T15:09:10.050Z,34.71
2023-05-18T15:11:36.779Z,33.17
2023-05-18T15:14:03.527Z,33.98
2023-05-18T15:16:30.270Z,33.54
2023-05-18T15:18:57.051Z,35.42
2023-05-18T15:21:24.189Z,35.69
2023-05-18T15:23:50.996Z,37.32
2023-05-18T15:26:17.793Z,35.99
2023-05-18T15:28:45.093Z,39.28
2023-05-18T15:31:12.066Z,40.21
2023-05-18T15:33:42.299Z,40.87
2023-05-18T15:36:09.474Z,39.38
2023-05-18T15:38:36.230Z,42.02
2023-05-18T15:41:02.891Z,42.46
2023-05-18T15:43:30.511Z,41.96
2023-05-18T15:45:58.256Z,41.91
2023-05-18T15:48:25.108Z,42.17
2023-05-18T15:50:51.870Z,41.33
2023-05-18T15:53:18.683Z,45.19
2023-05-18T15:55:45.707Z,43.53
2023-05-18T15:58:13.566Z,43.90
2023-05-18T16:00:40.537Z,41.01
2023-05-18T16:03:07.467Z,42.70
2023-05-18T16:05:34.293Z,44.47
2023-05-18T16:08:01.377Z,43.30
2023-05-18T16:10:28.425Z,43.12
2023-05-18T16:12:55.171Z,46.38
2023-05-18T16:15:24.694Z,46.64
2023-05-18T16:17:51.488Z,45.63
2023-05-18T16:20:18.649Z,45.23
2023-05-18T16:22:46.928Z,44.62
2023-05-18T16:25:13.921Z,47.60
2023-05-18T16:27:40.755Z,45.28
2023-05-18T16:30:08.238Z,44.72
2023-05-18T16:32:35.225Z,45.19
2023-05-18T16:35:02.232Z,44.14
2023-05-18T16:37:29.080Z,44.94
2023-05-18T16:39:55.858Z,46.68
2023-05-18T16:42:23.025Z,47.01
2023-05-18T16:44:49.863Z,46.75
2023-05-18T16:47:16.638Z,47.23
2023-05-18T16:49:46.067Z,48.21
2023-05-18T16:52:12.914Z,49.65
2023-05-18T16:54:39.689Z,52.57
2023-05-18T16:57:06.376Z,50.53
2023-05-18T16:59:34.522Z,49.97
2023-05-18T17:02:01.797Z,54.61
2023-05-18T17:04:28.578Z,53.24
2023-05-18T17:06:55.772Z,53.86
2023-05-18T17:09:22.673Z,58.53
2023-05-18T17:11:49.642Z,58.35
2023-05-18T17:14:16.395Z,62.97
2023-05-18T17:16:43.278Z,68.64
2023-05-18T17:19:10.080Z,72.65
2023-05-18T17:21:36.929Z,72.75
2023-05-18T17:24:03.858Z,76.15
2023-05-18T17:26:33.059Z,75.85
2023-05-18T17:28:59.875Z,76.99
2023-05-18T17:31:27.217Z,79.03
2023-05-18T17:33:54.692Z,78.56
2023-05-18T17:36:21.624Z,80.54
2023-05-18T17:38:48.478Z,80.35
2023-05-18T17:41:15.627Z,80.27
2023-05-18T17:43:42.785Z,79.96
2023-05-18T17:46:09.715Z,80.79
2023-05-18T17:48:36.475Z,83.67
2023-05-18T17:51:03.546Z,82.91
2023-05-18T17:53:31.110Z,85.25
2023-05-18T17:55:57.907Z,86.44
2023-05-18T17:58:24.641Z,85.80
2023-05-18T18:00:51.467Z,87.72
2023-05-18T18:03:20.507Z,84.82
2023-05-18T18:05:47.299Z,85.88
2023-05-18T18:08:16.189Z,87.53
2023-05-18T18:10:43.033Z,88.44
2023-05-18T18:13:09.791Z,87.17
2023-05-18T18:15:36.563Z,86.04
2023-05-18T18:18:03.348Z,89.00
2023-05-18T18:20:31.529Z,90.91
2023-05-18T18:22:58.475Z,90.55
2023-05-18T18:25:25.321Z,92.85
2023-05-18T18:27:52.103Z,92.85
2023-05-18T18:30:18.945Z,93.10
2023-05-18T18:32:45.738Z,95.72
2023-05-18T18:35:12.561Z,96.09
2023-05-18T18:37:39.837Z,96.53
2023-05-18T18:40:07.745Z,96.46
2023-05-18T18:42:34.518Z,98.82
2023-05-18T18:45:01.296Z,99.73
2023-05-18T18:47:28.077Z,100.00
2023-05-18T18:49:54.878Z,100.00
2023-05-18T18:52:21.612Z,100.00
2023-05-18T18:54:48.305Z,100.00
2023-05-18T18:57:15.106Z,100.00
2023-05-18T18:59:41.784Z,100.00
2023-05-18T19:02:08.623Z,100.00
2023-05-18T19:04:35.777Z,100.00
2023-05-18T19:07:03.262Z,100.00
2023-05-18T19:09:34.698Z,100.00
2023-05-18T19:12:01.758Z,100.00
2023-05-18T19:14:28.530Z,100.00
2023-05-18T19:16:56.209Z,100.00
2023-05-18T19:19:23.240Z,100.00
2023-05-18T19:21:50.557Z,100.00
2023-05-18T19:24:17.423Z,100.00
2023-05-18T19:26:44.811Z,100.00
2023-05-18T19:29:11.576Z,100.00
2023-05-18T19:31:38.440Z,100.00
2023-05-18T19:34:05.367Z,100.00
2023-05-18T19:36:32.226Z,100.00
2023-05-18T19:38:59.023Z,100.00
2023-05-18T19:41:26.819Z,100.00
2023-05-18T19:43:53.637Z,100.00
2023-05-18T19:46:20.379Z,100.00
2023-05-18T19:48:47.738Z,100.00
2023-05-18T19:51:14.503Z,100.00
2023-05-18T19:53:43.138Z,100.00
2023-05-18T19:56:09.874Z,100.00
2023-05-18T19:58:36.566Z,100.00
2023-05-18T20:01:04.240Z,100.00
2023-05-18T20:03:32.363Z,100.00
2023-05-18T20:05:59.170Z,100.00
2023-05-18T20:08:27.759Z,100.00
2023-05-18T20:10:54.881Z,100.00
2023-05-18T20:13:21.762Z,100.00
2023-05-18T20:15:49.906Z,100.00
2023-05-18T20:18:16.793Z,100.00
2023-05-18T20:20:43.591Z,100.00
2023-05-18T20:23:11.702Z,100.00
2023-05-18T20:25:38.487Z,100.00
2023-05-18T20:28:07.990Z,100.00
2023-05-18T20:30:34.902Z,100.00
2023-05-18T20:33:04.119Z,100.00
2023-05-18T20:35:31.545Z,100.00
2023-05-18T20:37:59.681Z,100.00
2023-05-18T20:40:27.554Z,100.00
2023-05-18T20:42:54.455Z,100.00
2023-05-18T20:45:22.383Z,100.00
2023-05-18T20:47:52.458Z,100.00
2023-05-18T20:50:19.635Z,100.00
2023-05-18T20:52:46.711Z,100.00
2023-05-18T20:55:14.831Z,100.00
2023-05-18T20:57:44.736Z,100.00
2023-05-18T21:00:12.846Z,100.00
2023-05-18T21:02:41.704Z,100.00
2023-05-18T21:05:09.006Z,100.00
2023-05-18T21:07:38.023Z,100.00
2023-05-18T21:10:05.215Z,100.00
2023-05-18T21:12:32.100Z,100.00
2023-05-18T21:14:59.056Z,100.00
2023-05-18T21:17:26.283Z,100.00
2023-05-18T21:19:53.078Z,100.00
2023-05-18T21:22:20.090Z,100.00
2023-05-18T21:24:46.966Z,100.00
2023-05-18T21:27:13.741Z,100.00
2023-05-18T21:29:40.594Z,100.00
2023-05-18T21:32:07.696Z,100.00
2023-05-18T21:34:34.661Z,100.00
2023-05-18T21:37:01.464Z,100.00
2023-05-18T21:39:28.370Z,100.00
2023-05-18T21:41:55.229Z,100.00
2023-05-18T21:44:21.998Z,100.00
2023-05-18T21:46:48.848Z,100.00
2023-05-18T21:49:15.692Z,100.00
2023-05-18T21:51:42.501Z,100.00
2023-05-18T21:54:09.308Z,100.00
2023-05-18T21:56:36.911Z,100.00
2023-05-18T21:59:03.721Z,100.00
2023-05-18T22:01:30.610Z,100.00
2023-05-18T22:03:57.628Z,100.00
2023-05-18T22:06:24.508Z,100.00
2023-05-18T22:08:51.882Z,100.00
2023-05-18T22:11:18.603Z,100.00
2023-05-18T22:13:45.900Z,100.00
2023-05-18T22:16:12.638Z,100.00
2023-05-18T22:18:39.461Z,100.00
2023-05-18T22:21:06.647Z,100.00
2023-05-18T22:23:33.433Z,100.00
2023-05-18T22:26:00.531Z,100.00
2023-05-18T22:28:27.309Z,100.00
2023-05-18T22:30:54.155Z,100.00
2023-05-18T22:33:21.389Z,100.00
2023-05-18T22:35:48.275Z,100.00
2023-05-18T22:38:15.753Z,100.00
2023-05-18T22:40:43.057Z,100.00
2023-05-18T22:43:09.845Z,100.00
2023-05-18T22:45:36.581Z,100.00
2023-05-18T22:48:03.586Z,100.00
2023-05-18T22:50:30.859Z,100.00
2023-05-18T22:52:58.748Z,100.00
2023-05-18T22:55:25.605Z,100.00
2023-05-18T22:57:52.380Z,100.00
2023-05-18T23:00:19.360Z,100.00
2023-05-18T23:02:46.175Z,100.00
2023-05-18T23:05:13.480Z,100.00
2023-05-18T23:07:41.919Z,100.00
2023-05-18T23:10:11.289Z,100.00
2023-05-18T23:12:38.283Z,100.00
2023-05-18T23:15:05.754Z,100.00
2023-05-18T23:17:33.042Z,100.00
2023-05-18T23:20:06.810Z,100.00
2023-05-18T23:22:34.956Z,100.00
2023-05-18T23:25:02.433Z,100.00
2023-05-18T23:27:29.213Z,100.00
2023-05-18T23:29:56.030Z,100.00
2023-05-18T23:32:23.070Z,100.00
2023-05-18T23:34:52.659Z,100.00
2023-05-18T23:37:21.063Z,100.00
2023-05-18T23:39:47.788Z,100.00
2023-05-18T23:42:14.577Z,100.00
2023-05-18T23:44:41.799Z,100.00
2023-05-18T23:47:08.935Z,100.00
2023-05-18T23:49:36.301Z,100.00
2023-05-18T23:52:03.723Z,100.00
2023-05-18T23:54:30.685Z,100.00
2023-05-18T23:56:58.887Z,100.00
2023-05-18T23:59:26.354Z,100.00
